.
WxDataArchive / Data Records for 2005-12-14
2005-12-13 December 2005 2005-12-15

Data Records for Wednesday, 14 December 2005

Time	Temp	Chill	HIndex	Humid	Dewpt	 Wind 	HiWind	WindDir	Rain 	Barom 
-----	----	-----	------	-----	-----	------	------	-------	-----	----- 
00:00	20.2	20.2	20.2	78	14.5	2	5	90	0.00	30.239 
00:05	20.0	20.0	20.0	78	14.3	1	2	90	0.00	30.239 
00:10	20.0	20.0	20.0	79	14.6	1	2	90	0.00	30.239 
00:15	19.9	19.9	19.9	79	14.5	0	3	90	0.00	30.247 
00:20	19.7	19.7	19.7	79	14.3	0	3	90	0.00	30.247 
00:25	19.5	19.5	19.5	79	14.1	1	3	112	0.00	30.247 
00:30	19.5	19.5	19.5	79	14.1	1	2	112	0.00	30.235 
00:35	19.4	19.4	19.4	79	14.0	1	2	112	0.00	30.235 
00:40	19.4	19.4	19.4	79	14.0	1	3	112	0.00	30.235 
00:45	19.2	19.2	19.2	79	13.8	1	2	112	0.00	30.237 
00:50	19.2	19.2	19.2	79	13.8	1	3	90	0.00	30.237 
00:55	19.2	19.2	19.2	79	13.8	1	3	90	0.00	30.237 
01:00	19.2	19.2	19.2	79	13.8	1	3	90	0.00	30.234 
01:05	19.2	19.2	19.2	79	13.8	1	2	90	0.00	30.234 
01:10	19.2	19.2	19.2	78	13.5	1	3	90	0.00	30.234 
01:15	19.2	19.2	19.2	78	13.5	2	3	90	0.00	30.235 
01:20	19.1	19.1	19.1	79	13.7	2	3	90	0.00	30.235 
01:25	19.1	19.1	19.1	79	13.7	1	3	112	0.00	30.235 
01:30	19.1	19.1	19.1	79	13.7	1	3	112	0.00	30.233 
01:35	18.9	18.9	18.9	79	13.5	1	3	90	0.00	30.233 
01:40	18.8	18.8	18.8	79	13.4	1	3	90	0.00	30.233 
01:45	18.6	18.6	18.6	79	13.2	1	3	90	0.00	30.235 
01:50	18.6	18.6	18.6	80	13.5	1	3	90	0.00	30.235 
01:55	18.6	18.6	18.6	80	13.5	1	2	90	0.00	30.235 
02:00	18.4	18.4	18.4	80	13.3	1	2	90	0.00	30.237 
02:05	18.4	18.4	18.4	80	13.3	1	3	90	0.00	30.237 
02:10	18.4	18.4	18.4	80	13.3	1	2	90	0.00	30.237 
02:15	18.3	18.3	18.3	80	13.2	1	3	90	0.00	30.237 
02:20	18.3	18.3	18.3	80	13.2	1	3	90	0.00	30.237 
02:25	18.3	18.3	18.3	80	13.2	1	3	90	0.00	30.237 
02:30	18.3	18.3	18.3	80	13.2	1	3	90	0.00	30.252 
02:35	18.3	18.3	18.3	80	13.2	1	3	90	0.00	30.252 
02:40	18.3	18.3	18.3	80	13.2	1	2	90	0.00	30.252 
02:45	18.3	18.3	18.3	80	13.2	1	2	90	0.00	30.266 
02:50	18.3	18.3	18.3	80	13.2	1	3	90	0.00	30.266 
02:55	18.3	18.3	18.3	80	13.2	2	3	112	0.00	30.266 
03:00	18.3	18.3	18.3	80	13.2	2	4	112	0.00	30.262 
03:05	18.1	18.1	18.1	80	13.0	2	3	90	0.00	30.262 
03:10	18.1	18.1	18.1	79	12.7	2	4	90	0.00	30.262 
03:15	18.1	18.1	18.1	80	13.0	1	3	90	0.00	30.255 
03:20	18.1	18.1	18.1	79	12.7	2	5	90	0.00	30.255 
03:25	18.1	18.1	18.1	80	13.0	1	3	90	0.00	30.255 
03:30	18.1	18.1	18.1	79	12.7	2	4	90	0.00	30.244 
03:35	18.0	18.0	18.0	79	12.6	2	4	90	0.00	30.244 
03:40	18.0	18.0	18.0	79	12.6	1	4	112	0.00	30.244 
03:45	18.1	18.1	18.1	79	12.7	1	3	90	0.00	30.247 
03:50	18.1	18.1	18.1	79	12.7	1	3	90	0.00	30.247 
03:55	18.1	18.1	18.1	79	12.7	2	3	90	0.00	30.247 
04:00	18.3	18.3	18.3	79	12.9	2	4	112	0.00	30.236 
04:05	18.6	18.6	18.6	78	12.9	3	5	112	0.00	30.236 
04:10	18.6	18.6	18.6	78	12.9	2	4	90	0.00	30.236 
04:15	18.8	18.8	18.8	78	13.1	2	4	90	0.00	30.227 
04:20	18.9	18.9	18.9	78	13.2	2	5	90	0.00	30.227 
04:25	19.1	19.1	19.1	78	13.4	2	3	90	0.00	30.227 
04:30	19.1	19.1	19.1	77	13.1	2	4	90	0.00	30.219 
04:35	19.1	19.1	19.1	77	13.1	2	5	90	0.00	30.219 
04:40	19.2	19.2	19.2	77	13.2	2	4	90	0.00	30.219 
04:45	19.4	19.4	19.4	77	13.4	2	4	90	0.00	30.207 
04:50	19.5	19.5	19.5	77	13.5	3	5	90	0.00	30.207 
04:55	19.7	19.7	19.7	77	13.7	2	6	90	0.00	30.207 
05:00	19.9	19.9	19.9	76	13.6	3	6	90	0.00	30.206 
05:05	20.0	20.0	20.0	75	13.4	3	5	112	0.00	30.206 
05:10	20.2	20.2	20.2	75	13.6	3	5	90	0.00	30.206 
05:15	20.3	20.3	20.3	75	13.7	3	7	112	0.00	30.205 
05:20	20.5	20.5	20.5	75	13.9	3	6	112	0.00	30.205 
05:25	20.5	14.8	20.5	75	13.9	4	6	90	0.00	30.205 
05:30	20.6	20.6	20.6	75	14.0	3	5	112	0.00	30.194 
05:35	20.6	20.6	20.6	75	14.0	3	5	90	0.00	30.194 
05:40	20.8	20.8	20.8	75	14.1	2	5	90	0.00	30.194 
05:45	20.8	20.8	20.8	75	14.1	3	6	90	0.00	30.195 
05:50	21.0	21.0	21.0	75	14.3	3	5	90	0.00	30.195 
05:55	21.0	15.4	21.0	75	14.3	4	6	90	0.00	30.195 
06:00	21.0	15.4	21.0	75	14.3	4	8	90	0.00	30.180 
06:05	21.1	15.5	21.1	75	14.4	4	10	90	0.00	30.180 
06:10	21.1	15.5	21.1	75	14.4	4	7	112	0.00	30.180 
06:15	21.3	21.3	21.3	75	14.6	3	6	112	0.00	30.171 
06:20	21.3	15.7	21.3	75	14.6	4	10	90	0.00	30.171 
06:25	21.4	21.4	21.4	75	14.7	3	5	90	0.00	30.171 
06:30	21.4	15.8	21.4	75	14.7	4	6	90	0.00	30.171 
06:35	21.6	16.1	21.6	75	14.9	4	6	90	0.00	30.171 
06:40	21.6	16.1	21.6	75	14.9	4	7	90	0.00	30.171 
06:45	21.6	16.1	21.6	75	14.9	4	7	90	0.00	30.167 
06:50	21.8	15.1	21.8	75	15.1	5	11	112	0.00	30.167 
06:55	21.8	15.1	21.8	75	15.1	5	7	112	0.00	30.167 
07:00	21.8	15.1	21.8	75	15.1	5	9	90	0.00	30.155 
07:05	21.6	13.8	21.6	75	14.9	6	11	90	0.00	30.155 
07:10	21.6	14.9	21.6	75	14.9	5	9	112	0.00	30.155 
07:15	21.6	16.1	21.6	75	14.9	4	11	112	0.00	30.158 
07:20	21.6	14.9	21.6	75	14.9	5	10	112	0.00	30.158 
07:25	21.6	16.1	21.6	75	14.9	4	7	112	0.00	30.158 
07:30	21.8	21.8	21.8	75	15.1	3	9	112	0.00	30.171 
07:35	21.8	21.8	21.8	75	15.1	3	6	112	0.00	30.171 
07:40	21.8	21.8	21.8	74	14.8	2	6	112	0.00	30.171 
07:45	21.9	21.9	21.9	75	15.2	2	5	112	0.00	30.178 
07:50	21.9	21.9	21.9	75	15.2	2	4	112	0.00	30.178 
07:55	21.9	21.9	21.9	75	15.2	3	6	112	0.00	30.178 
08:00	22.1	22.1	22.1	75	15.4	2	5	90	0.00	30.174 
08:05	22.1	22.1	22.1	75	15.4	2	5	112	0.00	30.174 
08:10	22.1	22.1	22.1	75	15.4	2	6	90	0.00	30.174 
08:15	22.1	22.1	22.1	75	15.4	3	5	112	0.00	30.171 
08:20	22.2	22.2	22.2	75	15.5	2	4	90	0.00	30.171 
08:25	22.2	22.2	22.2	76	15.8	2	6	112	0.00	30.171 
08:30	22.2	22.2	22.2	75	15.5	1	5	90	0.00	30.182 
08:35	22.2	22.2	22.2	75	15.5	2	3	112	0.00	30.182 
08:40	22.4	22.4	22.4	75	15.7	2	4	112	0.00	30.182 
08:45	22.4	22.4	22.4	76	16.0	1	3	112	0.00	30.186 
08:50	22.5	22.5	22.5	77	16.4	2	4	90	0.00	30.186 
08:55	22.5	22.5	22.5	76	16.1	3	5	90	0.00	30.186 
09:00	22.7	22.7	22.7	76	16.3	3	6	90	0.00	30.170 
09:05	22.9	22.9	22.9	75	16.2	3	6	112	0.00	30.170 
09:10	22.9	22.9	22.9	75	16.2	3	6	90	0.00	30.170 
09:15	23.0	23.0	23.0	76	16.6	3	6	90	0.00	30.168 
09:20	23.0	23.0	23.0	75	16.3	3	6	90	0.00	30.168 
09:25	23.2	23.2	23.2	74	16.2	3	7	90	0.00	30.168 
09:30	23.5	23.5	23.5	74	16.5	3	7	112	0.00	30.168 
09:35	23.6	23.6	23.6	74	16.6	3	7	112	0.00	30.168 
09:40	23.8	23.8	23.8	73	16.4	3	6	90	0.00	30.168 
09:45	23.9	17.6	23.9	72	16.2	5	10	112	0.00	30.161 
09:50	24.1	19.0	24.1	72	16.4	4	9	112	0.00	30.161 
09:55	24.2	24.2	24.2	71	16.2	3	6	112	0.00	30.161 
10:00	24.2	17.9	24.2	71	16.2	5	11	112	0.00	30.157 
10:05	24.4	19.3	24.4	71	16.4	4	7	112	0.00	30.157 
10:10	24.4	19.3	24.4	71	16.4	4	10	90	0.00	30.157 
10:15	24.4	18.1	24.4	71	16.4	5	9	90	0.00	30.151 
10:20	24.4	18.1	24.4	71	16.4	5	10	90	0.00	30.151 
10:25	24.4	19.3	24.4	72	16.7	4	10	112	0.00	30.151 
10:30	24.5	19.4	24.5	71	16.5	4	10	90	0.00	30.143 
10:35	24.7	19.6	24.7	71	16.7	4	10	112	0.00	30.143 
10:40	24.7	17.5	24.7	70	16.3	6	11	112	0.00	30.143 
10:45	24.8	18.6	24.8	70	16.4	5	11	112	0.00	30.137 
10:50	25.0	17.9	25.0	69	16.3	6	12	112	0.00	30.137 
10:55	25.3	18.3	25.3	69	16.6	6	12	112	0.00	30.137 
11:00	25.4	19.3	25.4	69	16.7	5	12	112	0.00	30.127 
11:05	25.6	18.6	25.6	68	16.5	6	11	112	0.00	30.127 
11:10	25.7	18.7	25.7	68	16.6	6	11	112	0.00	30.127 
11:15	25.8	18.8	25.8	67	16.4	6	12	90	0.00	30.111 
11:20	26.0	20.0	26.0	68	16.9	5	10	112	0.00	30.111 
11:25	26.0	20.0	26.0	66	16.2	5	10	90	0.00	30.111 
11:30	26.0	19.1	26.0	66	16.2	6	11	112	0.00	30.111 
11:35	26.1	21.3	26.1	67	16.7	4	10	112	0.00	30.111 
11:40	26.3	21.5	26.3	67	16.9	4	10	112	0.00	30.111 
11:45	26.4	20.5	26.4	67	17.0	5	12	112	0.00	30.113 
11:50	26.3	20.4	26.3	67	16.9	5	10	112	0.00	30.113 
11:55	26.3	20.4	26.3	67	16.9	5	14	112	0.00	30.113 
12:00	26.1	20.1	26.1	68	17.0	5	11	112	0.00	30.109 
12:05	26.1	20.1	26.1	68	17.0	5	11	112	0.00	30.109 
12:10	26.1	20.1	26.1	68	17.0	5	10	112	0.00	30.109 
12:15	26.4	20.5	26.4	67	17.0	5	11	112	0.00	30.095 
12:20	26.4	21.6	26.4	69	17.6	4	9	112	0.00	30.095 
12:25	26.3	20.4	26.3	71	18.2	5	10	90	0.00	30.095 
12:30	26.0	20.0	26.0	73	18.6	5	12	90	0.00	30.084 
12:35	26.0	21.1	26.0	76	19.5	4	7	112	0.00	30.084 
12:40	25.8	19.8	25.8	77	19.6	5	11	112	0.00	30.084 
12:45	25.7	18.7	25.7	78	19.8	6	13	112	0.00	30.079 
12:50	25.6	18.6	25.6	81	20.6	6	12	112	0.00	30.079 
12:55	25.6	20.7	25.6	82	20.9	4	11	112	0.00	30.079 
13:00	25.4	20.5	25.4	83	21.0	4	10	112	0.00	30.064 
13:05	25.6	25.6	25.6	84	21.5	3	7	112	0.00	30.064 
13:10	25.6	19.6	25.6	84	21.5	5	10	112	0.00	30.064 
13:15	25.6	19.6	25.6	84	21.5	5	11	112	0.00	30.060 
13:20	25.6	19.6	25.6	84	21.5	5	12	112	0.00	30.060 
13:25	25.6	20.7	25.6	85	21.7	4	7	112	0.00	30.060 
13:30	25.7	25.7	25.7	85	21.8	3	9	112	0.00	30.048 
13:35	25.7	20.8	25.7	86	22.1	4	12	112	0.00	30.048 
13:40	25.7	20.8	25.7	86	22.1	4	10	112	0.00	30.048 
13:45	25.8	19.8	25.8	86	22.2	5	10	112	0.00	30.040 
13:50	25.8	18.8	25.8	86	22.2	6	12	112	0.00	30.040 
13:55	25.8	20.9	25.8	86	22.2	4	11	90	0.00	30.040 
14:00	25.8	20.9	25.8	86	22.2	4	12	112	0.00	30.032 
14:05	26.0	21.1	26.0	87	22.7	4	9	112	0.00	30.032 
14:10	26.0	20.0	26.0	87	22.7	5	10	112	0.00	30.032 
14:15	26.0	21.1	26.0	87	22.7	4	10	90	0.00	30.025 
14:20	26.0	21.1	26.0	88	22.9	4	10	112	0.00	30.025 
14:25	26.0	21.1	26.0	88	22.9	4	8	112	0.00	30.025 
14:30	26.0	20.0	26.0	88	22.9	5	11	112	0.00	30.016 
14:35	26.0	20.0	26.0	88	22.9	5	11	90	0.00	30.016 
14:40	26.1	21.3	26.1	88	23.0	4	8	90	0.00	30.016 
14:45	26.1	20.1	26.1	88	23.0	5	9	90	0.00	30.007 
14:50	26.1	21.3	26.1	88	23.0	4	11	112	0.00	30.007 
14:55	26.3	20.4	26.3	88	23.2	5	10	112	0.00	30.007 
15:00	26.3	20.4	26.3	89	23.5	5	10	112	0.00	30.004 
15:05	26.3	20.4	26.3	89	23.5	5	12	112	0.00	30.004 
15:10	26.3	21.5	26.3	89	23.5	4	10	112	0.00	30.004 
15:15	26.4	20.5	26.4	89	23.6	5	13	112	0.00	30.007 
15:20	26.4	21.6	26.4	89	23.6	4	9	112	0.00	30.007 
15:25	26.4	21.6	26.4	89	23.6	4	9	90	0.00	30.007 
15:30	26.4	20.5	26.4	89	23.6	5	11	112	0.00	30.002 
15:35	26.6	21.8	26.6	90	24.1	4	7	112	0.00	30.002 
15:40	26.6	21.8	26.6	90	24.1	4	7	112	0.00	30.002 
15:45	26.7	20.9	26.7	90	24.2	5	11	112	0.00	29.998 
15:50	26.9	21.1	26.9	91	24.6	5	10	112	0.00	29.998 
15:55	27.0	22.3	27.0	91	24.7	4	9	112	0.00	29.998 
16:00	27.2	27.2	27.2	91	24.9	3	9	112	0.00	29.994 
16:05	27.3	27.3	27.3	92	25.3	3	7	112	0.00	29.994 
16:10	27.5	22.9	27.5	92	25.5	4	10	112	0.00	29.994 
16:15	27.6	21.9	27.6	91	25.3	5	9	112	0.00	29.981 
16:20	27.6	21.9	27.6	91	25.3	5	13	90	0.00	29.981 
16:25	27.8	23.2	27.8	91	25.5	4	7	112	0.00	29.981 
16:30	27.9	23.3	27.9	92	25.9	4	11	90	0.00	29.979 
16:35	28.1	22.5	28.1	92	26.1	5	11	90	0.00	29.979 
16:40	28.1	23.6	28.1	92	26.1	4	13	112	0.00	29.979 
16:45	28.2	23.7	28.2	92	26.2	4	10	112	0.00	29.969 
16:50	28.4	23.9	28.4	92	26.4	4	10	112	0.00	29.969 
16:55	28.4	23.9	28.4	92	26.4	4	7	112	0.00	29.969 
17:00	28.5	24.0	28.5	92	26.5	4	7	112	0.00	29.967 
17:05	28.5	24.0	28.5	92	26.5	4	8	90	0.00	29.967 
17:10	28.7	28.7	28.7	92	26.7	3	6	112	0.00	29.967 
17:15	28.7	24.3	28.7	92	26.7	4	9	112	0.00	29.966 
17:20	28.8	24.4	28.8	92	26.8	4	9	112	0.00	29.966 
17:25	28.8	24.4	28.8	92	26.8	4	9	112	0.00	29.966 
17:30	29.0	29.0	29.0	92	27.0	3	6	112	0.00	29.963 
17:35	29.0	24.6	29.0	92	27.0	4	6	112	0.00	29.963 
17:40	29.1	24.7	29.1	92	27.1	4	6	112	0.00	29.963 
17:45	29.3	25.0	29.3	93	27.5	4	7	112	0.00	29.955 
17:50	29.4	29.4	29.4	93	27.6	3	5	112	0.00	29.955 
17:55	29.5	29.5	29.5	93	27.7	3	6	90	0.00	29.955 
18:00	29.7	29.7	29.7	93	27.9	3	7	112	0.00	29.948 
18:05	29.8	29.8	29.8	93	28.0	3	7	112	0.00	29.948 
18:10	29.8	29.8	29.8	93	28.0	3	5	112	0.00	29.948 
18:15	30.0	30.0	30.0	93	28.2	3	5	112	0.00	29.951 
18:20	30.1	30.1	30.1	93	28.3	3	4	90	0.00	29.951 
18:25	30.1	30.1	30.1	93	28.3	2	4	112	0.00	29.951 
18:30	30.3	30.3	30.3	93	28.5	3	6	90	0.00	29.959 
18:35	30.4	30.4	30.4	93	28.6	2	5	112	0.00	29.959 
18:40	30.6	30.6	30.6	93	28.8	2	4	90	0.00	29.959 
18:45	30.7	30.7	30.7	93	28.9	2	4	112	0.00	29.954 
18:50	30.7	30.7	30.7	93	28.9	2	4	112	0.00	29.954 
18:55	30.9	30.9	30.9	93	29.1	2	4	90	0.00	29.954 
19:00	31.0	31.0	31.0	93	29.2	2	4	90	0.00	29.956 
19:05	31.2	31.2	31.2	94	29.7	2	7	90	0.00	29.956 
19:10	31.2	31.2	31.2	93	29.4	2	4	112	0.00	29.956 
19:15	31.3	31.3	31.3	93	29.5	2	4	112	0.00	29.957 
19:20	31.3	31.3	31.3	93	29.5	2	5	112	0.00	29.957 
19:25	31.3	31.3	31.3	93	29.5	2	5	112	0.00	29.957 
19:30	31.5	31.5	31.5	93	29.7	2	4	112	0.00	29.955 
19:35	31.5	31.5	31.5	93	29.7	2	5	112	0.00	29.955 
19:40	31.6	31.6	31.6	93	29.8	2	5	112	0.00	29.955 
19:45	31.6	31.6	31.6	93	29.8	2	4	112	0.00	29.945 
19:50	31.6	31.6	31.6	93	29.8	2	5	112	0.00	29.945 
19:55	31.8	31.8	31.8	93	30.0	3	6	112	0.00	29.945 
20:00	31.8	31.8	31.8	93	30.0	3	5	112	0.00	29.927 
20:05	31.9	31.9	31.9	93	30.1	3	9	112	0.00	29.927 
20:10	31.9	31.9	31.9	93	30.1	3	9	112	0.00	29.927 
20:15	31.9	31.9	31.9	93	30.1	2	5	112	0.00	29.913 
20:20	31.9	31.9	31.9	93	30.1	2	8	90	0.00	29.913 
20:25	32.1	32.1	32.1	93	30.3	3	8	112	0.00	29.913 
20:30	32.1	32.1	32.1	93	30.3	2	5	112	0.00	29.908 
20:35	32.1	32.1	32.1	93	30.3	2	4	112	0.00	29.908 
20:40	32.1	32.1	32.1	93	30.3	1	3	90	0.00	29.908 
20:45	32.1	32.1	32.1	93	30.3	1	5	90	0.00	29.910 
20:50	32.2	32.2	32.2	93	30.4	1	4	112	0.00	29.910 
20:55	32.2	32.2	32.2	93	30.4	2	3	112	0.00	29.910 
21:00	32.2	32.2	32.2	93	30.4	1	3	112	0.00	29.919 
21:05	32.2	32.2	32.2	93	30.4	1	3	112	0.00	29.919 
21:10	32.4	32.4	32.4	93	30.6	1	3	112	0.00	29.919 
21:15	32.4	32.4	32.4	93	30.6	1	3	135	0.00	29.919 
21:20	32.4	32.4	32.4	93	30.6	1	3	112	0.00	29.919 
21:25	32.4	32.4	32.4	93	30.6	1	4	90	0.00	29.919 
21:30	32.5	32.5	32.5	93	30.7	1	3	90	0.00	29.903 
21:35	32.5	32.5	32.5	93	30.7	1	3	112	0.00	29.903 
21:40	32.7	32.7	32.7	93	30.9	1	3	112	0.00	29.903 
21:45	32.7	32.7	32.7	93	30.9	1	3	90	0.00	29.906 
21:50	32.8	32.8	32.8	93	31.0	1	2	112	0.00	29.906 
21:55	32.8	32.8	32.8	93	31.0	1	3	90	0.00	29.906 
22:00	32.8	32.8	32.8	93	31.0	1	3	68	0.00	29.908 
22:05	32.9	32.9	32.9	93	31.1	2	4	135	0.00	29.908 
22:10	32.9	32.9	32.9	93	31.1	2	5	90	0.00	29.908 
22:15	33.1	33.1	33.1	93	31.3	1	4	112	0.00	29.908 
22:20	33.1	33.1	33.1	93	31.3	1	3	112	0.00	29.908 
22:25	33.2	33.2	33.2	93	31.4	1	3	112	0.00	29.908 
22:30	33.2	33.2	33.2	92	31.1	1	3	112	0.00	29.908 
22:35	33.4	33.4	33.4	92	31.3	2	4	90	0.00	29.908 
22:40	33.5	33.5	33.5	92	31.4	2	7	90	0.00	29.908 
22:45	33.7	33.7	33.7	91	31.4	1	3	112	0.00	29.907 
22:50	33.8	33.8	33.8	91	31.5	1	4	112	0.00	29.907 
22:55	34.0	34.0	34.0	90	31.4	2	5	90	0.00	29.907 
23:00	34.1	34.1	34.1	89	31.2	3	5	90	0.00	29.908 
23:05	34.3	34.3	34.3	89	31.4	2	5	112	0.00	29.908 
23:10	34.3	34.3	34.3	88	31.1	2	5	112	0.00	29.908 
23:15	34.3	34.3	34.3	88	31.1	2	4	135	0.00	29.907 
23:20	34.3	34.3	34.3	88	31.1	2	5	112	0.00	29.907 
23:25	34.4	34.4	34.4	88	31.2	3	6	90	0.00	29.907 
23:30	34.6	34.6	34.6	88	31.4	1	4	90	0.00	29.896 
23:35	34.6	34.6	34.6	88	31.4	2	5	90	0.00	29.896 
23:40	34.7	34.7	34.7	88	31.5	2	6	90	0.00	29.896 
23:45	34.7	34.7	34.7	88	31.5	2	6	90	0.00	29.889 
23:50	34.7	34.7	34.7	88	31.5	2	4	90	0.00	29.889 
23:55	34.7	34.7	34.7	88	31.5	2	5	112	0.00	29.889 

CoCoRaHS
IN-AL-39
A2 Web Hosting
Creative Commons License
GoDaddy
Look for:

loaded 2017-12-12 16:34:30 • last modified 2010-11-18 10:43:29
Privacy PolicyDisclaimer
• wx.awcolley.com is powered by PmWiki v.2002016 •
• all content (unless otherwise noted) © 2017 A W Colley